Terminal Aerodrome Forecast
Issued by NWS

Current Version | Previous Version | Text Only | Print | Product List | Glossary On
Versions: 1 2 3 4 5 6 7 8 9 10 11 12 13 14 15 16 17
592
FTUS42 KGSP 270531
TAFAND
TAF
KAND 270531Z 2706/2806 00000KT P6SM BKN060
     FM270900 00000KT P6SM VCSH BKN035
     FM271200 23003KT P6SM SCT045 PROB30 2720/2802 4SM TSRA BKN035CB
     FM280200 24005KT P6SM -SHRA VCTS OVC035CB
     FM280500 26003KT P6SM -SHRA VCTS OVC045CB=

USA.gov is the U.S. government's official web portal to all federal, state and local government web resources and services.